Time,TemperatureF,DewpointF,PressureIn,WindDirection,WindDirectionDegrees,WindSpeedMPH,WindSpeedGustMPH,Humidity,HourlyPrecipIn,Conditions,Clouds,dailyrainin,SolarRadiationWatts/m^2,SoftwareType,DateUTC
2013-10-06 00:00:00,67.8,63.1,29.94,West,281,0.0,0.0,85,0.00,,---,0.00,0.00,VWS V14.01,2013-10-06 04:00:00,
2013-10-06 00:01:00,67.8,63.1,29.94,West,281,0.0,0.0,85,0.00,,---,0.00,0.00,VWS V14.01,2013-10-06 04:01:00,
2013-10-06 00:02:00,67.8,63.1,29.94,West,281,0.0,0.0,85,0.00,,---,0.00,0.00,VWS V14.01,2013-10-06 04:02:00,
2013-10-06 00:05:00,67.8,63.1,29.94,West,281,0.0,0.0,85,0.00,,---,0.00,0.00,VWS V14.01,2013-10-06 04:05:00,
2013-10-06 00:10:00,67.7,63.0,29.94,West,281,0.0,0.0,85,0.00,,---,0.00,0.00,VWS V14.01,2013-10-06 04:10:00,
2013-10-06 00:15:00,67.7,63.0,29.94,West,281,0.0,0.0,85,0.00,,---,0.00,0.00,VWS V14.01,2013-10-06 04:15:00,
2013-10-06 00:20:00,67.6,62.9,29.94,West,281,0.0,0.0,85,0.00,,---,0.00,0.00,VWS V14.01,2013-10-06 04:20:00,
2013-10-06 00:25:00,67.5,62.8,29.94,West,281,0.0,0.0,85,0.00,,---,0.00,0.00,VWS V14.01,2013-10-06 04:25:00,
2013-10-06 00:30:00,67.4,62.7,29.94,West,281,0.0,0.0,85,0.00,,---,0.00,0.00,VWS V14.01,2013-10-06 04:30:00,
2013-10-06 00:36:00,67.3,62.6,29.94,West,281,0.0,0.0,85,0.00,,---,0.00,0.00,VWS V14.01,2013-10-06 04:36:00,
2013-10-06 00:40:00,67.0,62.7,29.94,West,281,0.0,0.0,86,0.00,,---,0.00,0.00,VWS V14.01,2013-10-06 04:40:00,
2013-10-06 00:41:00,67.2,62.5,29.94,West,281,0.0,0.0,85,0.00,,---,0.00,0.00,VWS V14.01,2013-10-06 04:41:00,
2013-10-06 00:46:00,67.0,62.7,29.93,West,281,0.0,0.0,86,0.00,,---,0.00,0.00,VWS V14.01,2013-10-06 04:46:00,
2013-10-06 00:50:00,66.7,62.4,29.93,West,281,0.0,0.0,86,0.00,,---,0.00,0.00,VWS V14.01,2013-10-06 04:50:00,
2013-10-06 00:51:00,66.9,62.6,29.93,West,281,0.0,0.0,86,0.00,,---,0.00,0.00,VWS V14.01,2013-10-06 04:51:00,
2013-10-06 00:56:00,66.7,62.4,29.93,West,281,0.0,0.0,86,0.00,,---,0.00,0.00,VWS V14.01,2013-10-06 04:56:00,
2013-10-06 01:00:00,66.3,62.0,29.93,West,281,0.0,0.0,86,0.00,,---,0.00,0.00,VWS V14.01,2013-10-06 05:00:00,
2013-10-06 01:01:00,66.6,62.3,29.93,West,281,0.0,0.0,86,0.00,,---,0.00,0.00,VWS V14.01,2013-10-06 05:01:00,
2013-10-06 01:06:00,66.3,62.0,29.93,West,281,0.0,0.0,86,0.00,,---,0.00,0.00,VWS V14.01,2013-10-06 05:06:00,
2013-10-06 01:10:00,65.9,61.9,29.93,West,281,0.0,0.0,87,0.00,,---,0.00,0.00,VWS V14.01,2013-10-06 05:10:00,
2013-10-06 01:11:00,66.2,62.2,29.93,West,281,0.0,0.0,87,0.00,,---,0.00,0.00,VWS V14.01,2013-10-06 05:11:00,
2013-10-06 01:17:00,65.9,61.9,29.93,West,281,0.0,0.0,87,0.00,,---,0.00,0.00,VWS V14.01,2013-10-06 05:17:00,
2013-10-06 01:20:00,65.6,62.0,29.93,West,281,0.0,0.0,88,0.00,,---,0.00,0.00,VWS V14.01,2013-10-06 05:20:00,
2013-10-06 01:22:00,65.7,61.7,29.93,West,281,0.0,0.0,87,0.00,,---,0.00,0.00,VWS V14.01,2013-10-06 05:22:00,
2013-10-06 01:27:00,65.6,62.0,29.93,West,281,0.0,0.0,88,0.00,,---,0.00,0.00,VWS V14.01,2013-10-06 05:27:00,
2013-10-06 01:30:00,65.2,61.6,29.92,West,281,0.0,0.0,88,0.00,,---,0.00,0.00,VWS V14.01,2013-10-06 05:30:00,
2013-10-06 01:32:00,65.4,61.8,29.93,West,281,0.0,0.0,88,0.00,,---,0.00,0.00,VWS V14.01,2013-10-06 05:32:00,
2013-10-06 01:37:00,65.2,61.6,29.92,West,281,0.0,0.0,88,0.00,,---,0.00,0.00,VWS V14.01,2013-10-06 05:37:00,
2013-10-06 01:40:00,64.9,61.6,29.93,West,281,0.0,0.0,89,0.00,,---,0.00,0.00,VWS V14.01,2013-10-06 05:40:00,
2013-10-06 01:42:00,65.0,61.4,29.93,West,281,0.0,0.0,88,0.00,,---,0.00,0.00,VWS V14.01,2013-10-06 05:42:00,
2013-10-06 01:47:00,64.9,61.6,29.93,West,281,0.0,0.0,89,0.00,,---,0.00,0.00,VWS V14.01,2013-10-06 05:47:00,
2013-10-06 01:50:00,64.6,61.3,29.92,West,281,0.0,0.0,89,0.00,,---,0.00,0.00,VWS V14.01,2013-10-06 05:50:00,
2013-10-06 01:53:00,64.8,61.5,29.92,West,281,0.0,0.0,89,0.00,,---,0.00,0.00,VWS V14.01,2013-10-06 05:53:00,
2013-10-06 01:58:00,64.6,61.3,29.92,West,281,0.0,0.0,89,0.00,,---,0.00,0.00,VWS V14.01,2013-10-06 05:58:00,
2013-10-06 02:00:00,64.3,61.0,29.92,West,281,0.0,0.0,89,0.00,,---,0.00,0.00,VWS V14.01,2013-10-06 06:00:00,
2013-10-06 02:03:00,64.4,61.1,29.93,West,281,0.0,0.0,89,0.00,,---,0.00,0.00,VWS V14.01,2013-10-06 06:03:00,
2013-10-06 02:08:00,64.3,61.0,29.92,West,281,0.0,0.0,89,0.00,,---,0.00,0.00,VWS V14.01,2013-10-06 06:08:00,
2013-10-06 02:10:00,64.0,61.0,29.92,West,281,0.0,0.0,90,0.00,,---,0.00,0.00,VWS V14.01,2013-10-06 06:10:00,
2013-10-06 02:13:00,64.1,61.1,29.92,West,281,0.0,0.0,90,0.00,,---,0.00,0.00,VWS V14.01,2013-10-06 06:13:00,
2013-10-06 02:18:00,64.0,61.0,29.92,West,281,0.0,0.0,90,0.00,,---,0.00,0.00,VWS V14.01,2013-10-06 06:18:00,
2013-10-06 02:20:00,63.8,61.1,29.92,West,281,0.0,0.0,91,0.00,,---,0.00,0.00,VWS V14.01,2013-10-06 06:20:00,
2013-10-06 02:23:00,63.9,60.9,29.92,West,281,0.0,0.0,90,0.00,,---,0.00,0.00,VWS V14.01,2013-10-06 06:23:00,
2013-10-06 02:28:00,63.8,61.1,29.92,West,281,0.0,0.0,91,0.00,,---,0.00,0.00,VWS V14.01,2013-10-06 06:28:00,
2013-10-06 02:30:00,63.5,60.8,29.91,West,281,0.0,0.0,91,0.00,,---,0.00,0.00,VWS V14.01,2013-10-06 06:30:00,
2013-10-06 02:33:00,63.6,60.9,29.92,West,281,0.0,0.0,91,0.00,,---,0.00,0.00,VWS V14.01,2013-10-06 06:33:00,
2013-10-06 02:38:00,63.5,60.8,29.91,West,281,0.0,0.0,91,0.00,,---,0.00,0.00,VWS V14.01,2013-10-06 06:38:00,
2013-10-06 02:40:00,63.3,60.6,29.91,West,281,0.0,0.0,91,0.00,,---,0.00,0.00,VWS V14.01,2013-10-06 06:40:00,
2013-10-06 02:43:00,63.4,60.7,29.91,West,281,0.0,0.0,91,0.00,,---,0.00,0.00,VWS V14.01,2013-10-06 06:43:00,
2013-10-06 02:48:00,63.2,60.5,29.91,West,281,0.0,0.0,91,0.00,,---,0.00,0.00,VWS V14.01,2013-10-06 06:48:00,
2013-10-06 02:50:00,63.0,60.6,29.91,West,281,0.0,0.0,92,0.00,,---,0.00,0.00,VWS V14.01,2013-10-06 06:50:00,
2013-10-06 02:54:00,63.1,60.7,29.91,West,281,0.0,0.0,92,0.00,,---,0.00,0.00,VWS V14.01,2013-10-06 06:54:00,
2013-10-06 02:59:00,63.0,60.6,29.91,West,281,0.0,0.0,92,0.00,,---,0.00,0.00,VWS V14.01,2013-10-06 06:59:00,
2013-10-06 03:00:00,62.9,60.8,29.91,West,281,0.0,0.0,93,0.00,,---,0.00,0.00,VWS V14.01,2013-10-06 07:00:00,
2013-10-06 03:04:00,62.9,60.5,29.91,West,281,0.0,0.0,92,0.00,,---,0.00,0.00,VWS V14.01,2013-10-06 07:04:00,
2013-10-06 03:09:00,62.9,60.8,29.91,West,281,0.0,0.0,93,0.00,,---,0.00,0.00,VWS V14.01,2013-10-06 07:09:00,
2013-10-06 03:10:00,63.0,61.0,29.90,West,281,0.0,0.0,93,0.00,,---,0.00,0.00,VWS V14.01,2013-10-06 07:10:00,
2013-10-06 03:14:00,63.0,61.0,29.90,West,281,0.0,0.0,93,0.00,,---,0.00,0.00,VWS V14.01,2013-10-06 07:14:00,
2013-10-06 03:19:00,63.0,61.0,29.90,West,281,0.0,0.0,93,0.00,,---,0.00,0.00,VWS V14.01,2013-10-06 07:19:00,
2013-10-06 03:20:00,62.9,60.5,29.90,West,281,0.0,0.0,92,0.00,,---,0.00,0.00,VWS V14.01,2013-10-06 07:20:00,
2013-10-06 03:24:00,62.9,60.5,29.90,West,281,0.0,0.0,92,0.00,,---,0.00,0.00,VWS V14.01,2013-10-06 07:24:00,
2013-10-06 03:29:00,62.8,60.5,29.90,West,281,0.0,0.0,92,0.00,,---,0.00,0.00,VWS V14.01,2013-10-06 07:29:00,
2013-10-06 03:30:00,62.9,60.8,29.90,West,281,0.0,0.0,93,0.00,,---,0.00,0.00,VWS V14.01,2013-10-06 07:30:00,
2013-10-06 03:34:00,62.8,60.5,29.90,West,281,0.0,0.0,92,0.00,,---,0.00,0.00,VWS V14.01,2013-10-06 07:34:00,
2013-10-06 03:40:00,62.8,60.5,29.89,West,281,0.0,0.0,92,0.00,,---,0.00,0.00,VWS V14.01,2013-10-06 07:40:00,
2013-10-06 03:45:00,62.8,60.5,29.89,West,281,0.0,0.0,92,0.00,,---,0.00,0.00,VWS V14.01,2013-10-06 07:45:00,
2013-10-06 03:50:00,62.7,60.3,29.89,West,281,0.0,0.0,92,0.00,,---,0.00,0.00,VWS V14.01,2013-10-06 07:50:00,
2013-10-06 03:55:00,62.6,60.2,29.89,West,281,0.0,0.0,92,0.00,,---,0.00,0.00,VWS V14.01,2013-10-06 07:55:00,
2013-10-06 04:00:00,62.5,60.2,29.89,West,281,0.0,0.0,92,0.00,,---,0.00,0.00,VWS V14.01,2013-10-06 08:00:00,
2013-10-06 04:05:00,62.4,60.0,29.89,West,281,0.0,0.0,92,0.00,,---,0.00,0.00,VWS V14.01,2013-10-06 08:05:00,
2013-10-06 04:10:00,62.2,59.8,29.89,West,281,0.0,0.0,92,0.00,,---,0.00,0.00,VWS V14.01,2013-10-06 08:10:00,
2013-10-06 04:15:00,62.1,59.8,29.89,West,281,0.0,0.0,92,0.00,,---,0.00,0.00,VWS V14.01,2013-10-06 08:15:00,
2013-10-06 04:20:00,61.9,59.5,29.89,West,281,0.0,0.0,92,0.00,,---,0.00,0.00,VWS V14.01,2013-10-06 08:20:00,
2013-10-06 04:25:00,61.7,59.4,29.89,West,281,0.0,0.0,92,0.00,,---,0.00,0.00,VWS V14.01,2013-10-06 08:25:00,
2013-10-06 04:30:00,61.5,59.5,29.88,West,281,0.0,0.0,93,0.00,,---,0.00,0.00,VWS V14.01,2013-10-06 08:30:00,
2013-10-06 04:36:00,61.5,59.8,29.88,West,281,0.0,0.0,94,0.00,,---,0.00,0.00,VWS V14.01,2013-10-06 08:36:00,
2013-10-06 04:40:00,61.6,60.2,29.88,West,281,0.0,0.0,95,0.00,,---,0.00,0.00,VWS V14.01,2013-10-06 08:40:00,
2013-10-06 04:41:00,61.5,59.8,29.88,West,281,0.0,0.0,94,0.00,,---,0.00,0.00,VWS V14.01,2013-10-06 08:41:00,
2013-10-06 04:46:00,61.6,60.2,29.88,West,281,0.0,0.0,95,0.00,,---,0.00,0.00,VWS V14.01,2013-10-06 08:46:00,
2013-10-06 04:50:00,61.4,59.7,29.88,West,281,0.0,0.0,94,0.00,,---,0.00,0.00,VWS V14.01,2013-10-06 08:50:00,
2013-10-06 04:51:00,61.6,59.9,29.88,West,281,0.0,0.0,94,0.00,,---,0.00,0.00,VWS V14.01,2013-10-06 08:51:00,
2013-10-06 04:56:00,61.4,59.7,29.88,West,281,0.0,0.0,94,0.00,,---,0.00,0.00,VWS V14.01,2013-10-06 08:56:00,
2013-10-06 05:00:00,61.2,59.2,29.88,West,281,0.0,0.0,93,0.00,,---,0.00,0.00,VWS V14.01,2013-10-06 09:00:00,
2013-10-06 05:01:00,61.4,59.7,29.88,West,281,0.0,0.0,94,0.00,,---,0.00,0.00,VWS V14.01,2013-10-06 09:01:00,
2013-10-06 05:06:00,61.3,59.3,29.88,West,281,0.0,0.0,93,0.00,,---,0.00,0.00,VWS V14.01,2013-10-06 09:06:00,
2013-10-06 05:09:00,61.2,59.2,29.88,West,281,0.0,0.0,93,0.00,,---,0.00,0.00,VWS V14.01,2013-10-06 09:09:00,
2013-10-06 05:10:00,61.0,59.0,29.88,West,281,0.0,0.0,93,0.00,,---,0.00,0.00,VWS V14.01,2013-10-06 09:10:00,
2013-10-06 05:14:00,61.1,59.1,29.88,West,281,0.0,0.0,93,0.00,,---,0.00,0.00,VWS V14.01,2013-10-06 09:14:00,
2013-10-06 05:19:00,61.0,59.0,29.88,West,281,0.0,0.0,93,0.00,,---,0.00,0.00,VWS V14.01,2013-10-06 09:19:00,
2013-10-06 05:20:00,61.0,59.3,29.88,West,281,0.0,0.0,94,0.00,,---,0.00,0.00,VWS V14.01,2013-10-06 09:20:00,
2013-10-06 05:24:00,61.1,59.4,29.88,West,281,0.0,0.0,94,0.00,,---,0.00,0.00,VWS V14.01,2013-10-06 09:24:00,
2013-10-06 05:29:00,61.0,59.3,29.88,West,281,0.0,0.0,94,0.00,,---,0.00,0.00,VWS V14.01,2013-10-06 09:29:00,
2013-10-06 05:30:00,60.9,59.2,29.88,West,281,0.0,0.0,94,0.00,,---,0.00,0.00,VWS V14.01,2013-10-06 09:30:00,
2013-10-06 05:34:00,60.9,59.2,29.88,West,281,0.0,0.0,94,0.00,,---,0.00,0.00,VWS V14.01,2013-10-06 09:34:00,
2013-10-06 05:39:00,60.9,59.2,29.88,West,281,0.0,0.0,94,0.00,,---,0.00,0.00,VWS V14.01,2013-10-06 09:39:00,
2013-10-06 05:40:00,60.7,59.0,29.89,West,281,0.0,0.0,94,0.00,,---,0.00,0.00,VWS V14.01,2013-10-06 09:40:00,
2013-10-06 05:45:00,60.8,59.1,29.88,West,281,0.0,0.0,94,0.00,,---,0.00,0.00,VWS V14.01,2013-10-06 09:45:00,
2013-10-06 05:50:00,60.6,58.9,29.89,West,281,0.0,0.0,94,0.00,,---,0.00,0.00,VWS V14.01,2013-10-06 09:50:00,
2013-10-06 05:55:00,60.5,58.8,29.89,West,281,0.0,0.0,94,0.00,,---,0.00,0.00,VWS V14.01,2013-10-06 09:55:00,
2013-10-06 06:00:00,60.3,58.6,29.89,West,281,0.0,0.0,94,0.00,,---,0.00,0.00,VWS V14.01,2013-10-06 10:00:00,
2013-10-06 06:05:00,60.1,58.4,29.89,West,281,0.0,0.0,94,0.00,,---,0.00,0.00,VWS V14.01,2013-10-06 10:05:00,
2013-10-06 06:10:00,60.0,58.3,29.89,West,281,0.0,0.0,94,0.00,,---,0.00,0.00,VWS V14.01,2013-10-06 10:10:00,
2013-10-06 06:15:00,59.9,58.2,29.89,West,281,0.0,0.0,94,0.00,,---,0.00,0.00,VWS V14.01,2013-10-06 10:15:00,
2013-10-06 06:20:00,59.8,58.4,29.89,West,281,0.0,0.0,95,0.00,,---,0.00,0.00,VWS V14.01,2013-10-06 10:20:00,
2013-10-06 06:25:00,59.8,58.4,29.89,West,281,0.0,0.0,95,0.00,,---,0.00,0.00,VWS V14.01,2013-10-06 10:25:00,
2013-10-06 06:30:00,59.9,58.5,29.89,WNW,290,0.0,0.0,95,0.00,,---,0.00,0.00,VWS V14.01,2013-10-06 10:30:00,
2013-10-06 06:35:00,59.8,58.4,29.90,WNW,290,0.0,0.0,95,0.00,,---,0.00,0.00,VWS V14.01,2013-10-06 10:35:00,
2013-10-06 06:40:00,59.8,58.7,29.90,WNW,290,0.0,0.0,96,0.00,,---,0.00,0.00,VWS V14.01,2013-10-06 10:40:00,
2013-10-06 06:41:00,59.7,58.3,29.90,WNW,290,0.0,0.0,95,0.00,,---,0.00,0.00,VWS V14.01,2013-10-06 10:41:00,
2013-10-06 06:46:00,59.8,58.7,29.90,WNW,290,0.0,0.0,96,0.00,,---,0.00,0.00,VWS V14.01,2013-10-06 10:46:00,
2013-10-06 06:50:00,59.4,58.0,29.90,WNW,290,0.0,0.0,95,0.00,,---,0.00,0.00,VWS V14.01,2013-10-06 10:50:00,
2013-10-06 06:51:00,59.7,58.3,29.90,WNW,290,0.0,0.0,95,0.00,,---,0.00,0.00,VWS V14.01,2013-10-06 10:51:00,
2013-10-06 06:56:00,59.5,58.1,29.90,WNW,290,0.0,0.0,95,0.00,,---,0.00,0.00,VWS V14.01,2013-10-06 10:56:00,
2013-10-06 07:00:00,59.3,57.9,29.90,WNW,290,0.0,0.0,95,0.00,,---,0.00,0.00,VWS V14.01,2013-10-06 11:00:00,
2013-10-06 07:01:00,59.4,58.0,29.90,WNW,290,0.0,0.0,95,0.00,,---,0.00,0.00,VWS V14.01,2013-10-06 11:01:00,
2013-10-06 07:06:00,59.4,58.0,29.90,WNW,290,0.0,0.0,95,0.00,,---,0.00,0.00,VWS V14.01,2013-10-06 11:06:00,
2013-10-06 07:10:00,59.0,57.6,29.90,WNW,290,0.0,0.0,95,0.00,,---,0.00,0.00,VWS V14.01,2013-10-06 11:10:00,
2013-10-06 07:11:00,59.2,57.8,29.90,WNW,290,0.0,0.0,95,0.00,,---,0.00,0.00,VWS V14.01,2013-10-06 11:11:00,
2013-10-06 07:16:00,59.0,57.6,29.90,WNW,290,0.0,0.0,95,0.00,,---,0.00,0.00,VWS V14.01,2013-10-06 11:16:00,
2013-10-06 07:20:00,58.9,57.8,29.90,WNW,290,0.0,0.0,96,0.00,,---,0.00,0.00,VWS V14.01,2013-10-06 11:20:00,
2013-10-06 07:21:00,58.9,57.5,29.90,WNW,290,0.0,0.0,95,0.00,,---,0.00,0.00,VWS V14.01,2013-10-06 11:21:00,
2013-10-06 07:27:00,58.9,57.8,29.90,WNW,290,0.0,0.0,96,0.00,,---,0.00,0.00,VWS V14.01,2013-10-06 11:27:00,
2013-10-06 07:30:00,59.0,57.9,29.90,WNW,290,0.0,0.0,96,0.00,,---,0.00,7.00,VWS V14.01,2013-10-06 11:30:00,
2013-10-06 07:32:00,59.0,57.9,29.90,WNW,290,0.0,0.0,96,0.00,,---,0.00,5.00,VWS V14.01,2013-10-06 11:32:00,
2013-10-06 07:37:00,59.0,57.9,29.90,WNW,290,0.0,0.0,96,0.00,,---,0.00,7.00,VWS V14.01,2013-10-06 11:37:00,
2013-10-06 07:40:00,59.2,58.1,29.90,WNW,290,0.0,0.0,96,0.00,,---,0.00,11.00,VWS V14.01,2013-10-06 11:40:00,
2013-10-06 07:42:00,59.0,57.9,29.90,WNW,290,0.0,0.0,96,0.00,,---,0.00,9.00,VWS V14.01,2013-10-06 11:42:00,
2013-10-06 07:47:00,59.1,58.0,29.90,WNW,290,0.0,0.0,96,0.00,,---,0.00,11.00,VWS V14.01,2013-10-06 11:47:00,
2013-10-06 07:50:00,59.1,58.0,29.91,WNW,290,0.0,0.0,96,0.00,,---,0.00,14.00,VWS V14.01,2013-10-06 11:50:00,
2013-10-06 07:52:00,59.2,58.1,29.90,WNW,290,0.0,0.0,96,0.00,,---,0.00,12.00,VWS V14.01,2013-10-06 11:52:00,
2013-10-06 07:57:00,59.1,58.0,29.91,WNW,290,0.0,0.0,96,0.00,,---,0.00,14.00,VWS V14.01,2013-10-06 11:57:00,
2013-10-06 08:00:00,59.2,58.3,29.91,WNW,290,0.0,0.0,97,0.00,,---,0.00,18.00,VWS V14.01,2013-10-06 12:00:00,
2013-10-06 08:02:00,59.1,58.0,29.90,WNW,290,0.0,0.0,96,0.00,,---,0.00,16.00,VWS V14.01,2013-10-06 12:02:00,
2013-10-06 08:07:00,59.2,58.1,29.91,WNW,290,0.0,0.0,96,0.00,,---,0.00,18.00,VWS V14.01,2013-10-06 12:07:00,
2013-10-06 08:10:00,59.3,58.5,29.91,WNW,290,0.0,0.0,97,0.00,,---,0.00,19.00,VWS V14.01,2013-10-06 12:10:00,
2013-10-06 08:12:00,59.3,58.5,29.90,WNW,290,0.0,0.0,97,0.00,,---,0.00,18.00,VWS V14.01,2013-10-06 12:12:00,
2013-10-06 08:17:00,59.4,58.5,29.91,WNW,290,0.0,0.0,97,0.00,,---,0.00,19.00,VWS V14.01,2013-10-06 12:17:00,
2013-10-06 08:20:00,59.6,58.8,29.91,WNW,290,0.0,0.0,97,0.00,,---,0.00,21.00,VWS V14.01,2013-10-06 12:20:00,
2013-10-06 08:22:00,59.4,58.5,29.90,WNW,290,0.0,0.0,97,0.00,,---,0.00,21.00,VWS V14.01,2013-10-06 12:22:00,
2013-10-06 08:27:00,59.6,58.8,29.91,WNW,290,0.0,0.0,97,0.00,,---,0.00,21.00,VWS V14.01,2013-10-06 12:27:00,
2013-10-06 08:30:00,59.9,59.0,29.91,WNW,290,0.0,0.0,97,0.00,,---,0.00,25.00,VWS V14.01,2013-10-06 12:30:00,
2013-10-06 08:32:00,59.7,58.8,29.91,WNW,290,0.0,0.0,97,0.00,,---,0.00,23.00,VWS V14.01,2013-10-06 12:32:00,
2013-10-06 08:38:00,59.9,59.0,29.91,WNW,290,0.0,0.0,97,0.00,,---,0.00,25.00,VWS V14.01,2013-10-06 12:38:00,
2013-10-06 08:40:00,60.0,59.2,29.91,WNW,290,0.0,0.0,97,0.00,,---,0.00,26.00,VWS V14.01,2013-10-06 12:40:00,
2013-10-06 08:43:00,59.9,59.0,29.91,WNW,290,0.0,0.0,97,0.00,,---,0.00,25.00,VWS V14.01,2013-10-06 12:43:00,
2013-10-06 08:48:00,60.0,59.2,29.91,WNW,290,0.0,0.0,97,0.00,,---,0.00,26.00,VWS V14.01,2013-10-06 12:48:00,
2013-10-06 08:50:00,60.4,59.8,29.91,WNW,290,0.0,0.0,98,0.00,,---,0.00,28.00,VWS V14.01,2013-10-06 12:50:00,
2013-10-06 08:53:00,60.3,59.7,29.91,WNW,290,0.0,0.0,98,0.00,,---,0.00,26.00,VWS V14.01,2013-10-06 12:53:00,
2013-10-06 08:58:00,60.4,59.8,29.91,WNW,290,0.0,0.0,98,0.00,,---,0.00,28.00,VWS V14.01,2013-10-06 12:58:00,
2013-10-06 09:00:00,60.7,59.8,29.91,WNW,290,0.0,0.0,97,0.00,,---,0.00,30.00,VWS V14.01,2013-10-06 13:00:00,
2013-10-06 09:03:00,60.5,59.7,29.91,WNW,290,0.0,0.0,97,0.00,,---,0.00,28.00,VWS V14.01,2013-10-06 13:03:00,
2013-10-06 09:08:00,60.7,59.8,29.91,WNW,290,0.0,0.0,97,0.00,,---,0.00,30.00,VWS V14.01,2013-10-06 13:08:00,
2013-10-06 09:10:00,61.1,60.5,29.91,WNW,290,0.0,0.0,98,0.00,,---,0.00,39.00,VWS V14.01,2013-10-06 13:10:00,
2013-10-06 09:13:00,60.8,60.2,29.91,WNW,290,0.0,0.0,98,0.00,,---,0.00,56.00,VWS V14.01,2013-10-06 13:13:00,
2013-10-06 09:18:00,61.1,60.5,29.91,WNW,290,0.0,0.0,98,0.00,,---,0.00,69.00,VWS V14.01,2013-10-06 13:18:00,
2013-10-06 09:20:00,61.7,61.1,29.91,WNW,290,0.0,0.0,98,0.00,,---,0.00,39.00,VWS V14.01,2013-10-06 13:20:00,
2013-10-06 09:23:00,61.4,60.8,29.91,WNW,290,0.0,0.0,98,0.00,,---,0.00,53.00,VWS V14.01,2013-10-06 13:23:00,
2013-10-06 09:29:00,61.7,61.1,29.91,WNW,290,0.0,0.0,98,0.00,,---,0.00,35.00,VWS V14.01,2013-10-06 13:29:00,
2013-10-06 09:30:00,62.4,61.8,29.91,WNW,290,0.0,0.0,98,0.00,,---,0.00,37.00,VWS V14.01,2013-10-06 13:30:00,
2013-10-06 09:34:00,62.1,61.5,29.91,WNW,290,0.0,0.0,98,0.00,,---,0.00,35.00,VWS V14.01,2013-10-06 13:34:00,
2013-10-06 09:39:00,62.5,61.9,29.91,WNW,290,0.0,0.0,98,0.00,,---,0.00,37.00,VWS V14.01,2013-10-06 13:39:00,
2013-10-06 09:40:00,63.4,62.8,29.91,WNW,290,0.0,0.0,98,0.00,,---,0.00,42.00,VWS V14.01,2013-10-06 13:40:00,
2013-10-06 09:44:00,63.0,62.4,29.91,WNW,290,0.0,0.0,98,0.00,,---,0.00,37.00,VWS V14.01,2013-10-06 13:44:00,
2013-10-06 09:49:00,63.5,62.9,29.91,WNW,290,0.0,0.0,98,0.00,,---,0.00,39.00,VWS V14.01,2013-10-06 13:49:00,
2013-10-06 09:50:00,64.1,63.5,29.91,WNW,290,0.0,0.0,98,0.00,,---,0.00,40.00,VWS V14.01,2013-10-06 13:50:00,
2013-10-06 09:54:00,63.8,63.2,29.91,WNW,290,0.0,0.0,98,0.00,,---,0.00,39.00,VWS V14.01,2013-10-06 13:54:00,
2013-10-06 09:59:00,64.3,63.7,29.91,WNW,290,0.0,0.0,98,0.00,,---,0.00,40.00,VWS V14.01,2013-10-06 13:59:00,
2013-10-06 10:00:00,65.0,64.4,29.91,WNW,292,0.0,0.0,98,0.00,,---,0.00,54.00,VWS V14.01,2013-10-06 14:00:00,
2013-10-06 10:04:00,64.7,64.1,29.91,WNW,293,0.0,0.0,98,0.00,,---,0.00,46.00,VWS V14.01,2013-10-06 14:04:00,
2013-10-06 10:09:00,65.1,64.5,29.91,WNW,292,0.0,0.0,98,0.00,,---,0.00,70.00,VWS V14.01,2013-10-06 14:09:00,
2013-10-06 10:10:00,65.9,65.0,29.91,NE,36,0.0,0.0,97,0.00,,---,0.00,244.00,VWS V14.01,2013-10-06 14:10:00,
2013-10-06 10:14:00,65.5,64.9,29.91,NE,38,0.0,0.0,98,0.00,,---,0.00,134.00,VWS V14.01,2013-10-06 14:14:00,
2013-10-06 10:19:00,66.0,65.1,29.90,NE,36,0.0,0.0,97,0.00,,---,0.00,176.00,VWS V14.01,2013-10-06 14:19:00,
2013-10-06 10:20:00,66.8,65.3,29.91,NE,35,0.0,0.0,95,0.00,,---,0.00,413.00,VWS V14.01,2013-10-06 14:20:00,
2013-10-06 10:25:00,66.5,65.3,29.91,NE,35,0.0,0.0,96,0.00,,---,0.00,130.00,VWS V14.01,2013-10-06 14:25:00,
2013-10-06 10:30:00,67.1,65.6,29.91,NE,35,0.0,0.0,95,0.00,,---,0.00,439.00,VWS V14.01,2013-10-06 14:30:00,
2013-10-06 10:35:00,67.7,65.9,29.91,NE,35,0.0,0.0,94,0.00,,---,0.00,448.00,VWS V14.01,2013-10-06 14:35:00,
2013-10-06 10:40:00,68.5,66.1,29.90,NE,35,0.0,0.0,92,0.00,,---,0.00,468.00,VWS V14.01,2013-10-06 14:40:00,
2013-10-06 10:45:00,69.4,66.3,29.90,NE,39,0.0,0.0,90,0.00,,---,0.00,492.00,VWS V14.01,2013-10-06 14:45:00,
2013-10-06 10:50:00,70.4,67.0,29.90,NE,39,0.0,0.0,89,0.00,,---,0.00,506.00,VWS V14.01,2013-10-06 14:50:00,
2013-10-06 10:55:00,71.2,67.1,29.89,NE,49,0.0,0.0,87,0.00,,---,0.00,524.00,VWS V14.01,2013-10-06 14:55:00,
2013-10-06 11:00:00,72.1,67.0,29.89,WNW,301,0.0,0.0,84,0.00,,---,0.00,538.00,VWS V14.01,2013-10-06 15:00:00,
2013-10-06 11:05:00,72.8,67.0,29.89,NW,316,0.0,0.0,82,0.00,,---,0.00,550.00,VWS V14.01,2013-10-06 15:05:00,
2013-10-06 11:10:00,73.4,67.2,29.89,NW,310,0.0,0.0,81,0.00,,---,0.00,564.00,VWS V14.01,2013-10-06 15:10:00,
2013-10-06 11:15:00,74.1,66.8,29.89,South,170,0.0,0.0,78,0.00,,---,0.00,578.00,VWS V14.01,2013-10-06 15:15:00,
2013-10-06 11:20:00,74.8,66.0,29.89,SW,235,0.0,0.0,74,0.00,,---,0.00,594.00,VWS V14.01,2013-10-06 15:20:00,
2013-10-06 11:26:00,75.5,65.8,29.88,WSW,251,0.0,0.0,72,0.00,,---,0.00,619.00,VWS V14.01,2013-10-06 15:26:00,
2013-10-06 11:30:00,77.1,67.0,29.88,WNW,294,0.0,0.0,71,0.00,,---,0.00,661.00,VWS V14.01,2013-10-06 15:30:00,
2013-10-06 11:31:00,76.1,66.0,29.88,WSW,247,0.0,0.0,71,0.00,,---,0.00,635.00,VWS V14.01,2013-10-06 15:31:00,
2013-10-06 11:36:00,76.8,66.3,29.88,WNW,294,0.0,0.0,70,0.00,,---,0.00,677.00,VWS V14.01,2013-10-06 15:36:00,
2013-10-06 11:40:00,78.3,65.6,29.88,NW,306,0.0,0.0,65,0.00,,---,0.00,721.00,VWS V14.01,2013-10-06 15:40:00,
2013-10-06 11:41:00,77.5,66.1,29.88,WSW,255,0.0,0.0,68,0.00,,---,0.00,176.00,VWS V14.01,2013-10-06 15:41:00,
2013-10-06 11:46:00,78.1,65.4,29.88,NW,321,0.0,0.0,65,0.00,,---,0.00,719.00,VWS V14.01,2013-10-06 15:46:00,
2013-10-06 11:50:00,78.4,64.3,29.88,WSW,246,0.0,0.0,62,0.00,,---,0.00,130.00,VWS V14.01,2013-10-06 15:50:00,
2013-10-06 11:51:00,78.5,65.8,29.88,West,274,0.0,0.0,65,0.00,,---,0.00,163.00,VWS V14.01,2013-10-06 15:51:00,
2013-10-06 11:56:00,78.4,64.3,29.88,NNE,30,0.0,0.0,62,0.00,,---,0.00,758.00,VWS V14.01,2013-10-06 15:56:00,
2013-10-06 12:00:00,78.5,63.9,29.87,WNW,294,0.0,0.0,61,0.00,,---,0.00,733.00,VWS V14.01,2013-10-06 16:00:00,
2013-10-06 12:01:00,78.3,65.6,29.88,WSW,244,0.0,0.0,65,0.00,,---,0.00,752.00,VWS V14.01,2013-10-06 16:01:00,
2013-10-06 12:06:00,78.4,64.8,29.87,NW,304,0.0,0.0,63,0.00,,---,0.00,731.00,VWS V14.01,2013-10-06 16:06:00,
2013-10-06 12:10:00,78.8,64.2,29.87,WNW,301,0.0,0.0,61,0.00,,---,0.00,724.00,VWS V14.01,2013-10-06 16:10:00,
2013-10-06 12:11:00,78.8,64.7,29.87,WNW,286,0.0,0.0,62,0.00,,---,0.00,90.00,VWS V14.01,2013-10-06 16:11:00,
2013-10-06 12:16:00,78.7,63.7,29.87,NW,312,0.0,0.0,60,0.00,,---,0.00,765.00,VWS V14.01,2013-10-06 16:16:00,
2013-10-06 12:20:00,79.6,64.0,29.87,NW,307,0.0,0.0,59,0.00,,---,0.00,758.00,VWS V14.01,2013-10-06 16:20:00,
2013-10-06 12:21:00,79.1,64.5,29.87,SW,227,0.0,0.0,61,0.00,,---,0.00,737.00,VWS V14.01,2013-10-06 16:21:00,
2013-10-06 12:27:00,79.5,63.4,29.87,WNW,300,0.0,0.0,58,0.00,,---,0.00,758.00,VWS V14.01,2013-10-06 16:27:00,
2013-10-06 12:30:00,80.1,64.5,29.87,WNW,284,0.0,5.0,59,0.00,,---,0.00,777.00,VWS V14.01,2013-10-06 16:30:00,
2013-10-06 12:32:00,79.8,63.7,29.87,NW,312,0.0,0.0,58,0.00,,---,0.00,761.00,VWS V14.01,2013-10-06 16:32:00,
2013-10-06 12:37:00,80.0,63.4,29.87,West,280,0.0,3.0,57,0.00,,---,0.00,777.00,VWS V14.01,2013-10-06 16:37:00,
2013-10-06 12:40:00,80.8,64.2,29.86,WNW,292,0.0,6.0,57,0.00,,---,0.00,793.00,VWS V14.01,2013-10-06 16:40:00,
2013-10-06 12:42:00,80.4,63.8,29.87,West,280,0.0,6.0,57,0.00,,---,0.00,828.00,VWS V14.01,2013-10-06 16:42:00,
2013-10-06 12:47:00,80.8,64.2,29.86,WNW,291,1.0,6.0,57,0.00,,---,0.00,810.00,VWS V14.01,2013-10-06 16:47:00,
2013-10-06 12:50:00,81.0,63.8,29.86,WNW,283,2.0,6.0,56,0.00,,---,0.00,907.00,VWS V14.01,2013-10-06 16:50:00,
2013-10-06 12:52:00,81.2,64.0,29.86,NW,306,1.0,4.0,56,0.00,,---,0.00,758.00,VWS V14.01,2013-10-06 16:52:00,
2013-10-06 12:57:00,81.0,63.8,29.86,WNW,282,3.0,6.0,56,0.00,,---,0.00,907.00,VWS V14.01,2013-10-06 16:57:00,
2013-10-06 13:00:00,80.5,63.4,29.85,West,274,0.0,7.0,56,0.00,,---,0.00,225.00,VWS V14.01,2013-10-06 17:00:00,
2013-10-06 13:02:00,80.8,63.7,29.85,WNW,298,0.0,2.0,56,0.00,,---,0.00,907.00,VWS V14.01,2013-10-06 17:02:00,
2013-10-06 13:07:00,80.5,63.9,29.85,WNW,282,0.0,7.0,57,0.00,,---,0.00,225.00,VWS V14.01,2013-10-06 17:07:00,
2013-10-06 13:10:00,79.8,62.7,29.84,NW,313,0.0,4.0,56,0.00,,---,0.00,939.00,VWS V14.01,2013-10-06 17:10:00,
2013-10-06 13:12:00,80.1,63.0,29.85,WNW,300,0.0,4.0,56,0.00,,---,0.00,236.00,VWS V14.01,2013-10-06 17:12:00,
2013-10-06 13:17:00,79.8,63.2,29.84,NW,313,0.0,4.0,57,0.00,,---,0.00,939.00,VWS V14.01,2013-10-06 17:17:00,
2013-10-06 13:20:00,80.8,63.7,29.84,WNW,300,0.0,6.0,56,0.00,,---,0.00,264.00,VWS V14.01,2013-10-06 17:20:00,
2013-10-06 13:23:00,80.3,64.7,29.84,West,272,1.0,5.0,59,0.00,,---,0.00,933.00,VWS V14.01,2013-10-06 17:23:00,
2013-10-06 13:28:00,80.8,63.7,29.84,WNW,300,0.0,6.0,56,0.00,,---,0.00,264.00,VWS V14.01,2013-10-06 17:28:00,
2013-10-06 13:30:00,80.9,63.2,29.83,WNW,300,0.0,6.0,55,0.00,,---,0.00,853.00,VWS V14.01,2013-10-06 17:30:00,
2013-10-06 13:33:00,80.8,63.7,29.84,West,273,3.0,4.0,56,0.00,,---,0.00,264.00,VWS V14.01,2013-10-06 17:33:00,
2013-10-06 13:38:00,80.9,63.2,29.83,West,267,2.0,2.0,55,0.00,,---,0.00,853.00,VWS V14.01,2013-10-06 17:38:00,
2013-10-06 13:40:00,81.4,62.6,29.83,SW,227,0.0,5.0,53,0.00,,---,0.00,258.00,VWS V14.01,2013-10-06 17:40:00,
2013-10-06 13:43:00,81.5,62.2,29.83,SSW,212,0.0,5.0,52,0.00,,---,0.00,747.00,VWS V14.01,2013-10-06 17:43:00,
2013-10-06 13:48:00,81.4,62.6,29.83,SW,227,0.0,0.0,53,0.00,,---,0.00,258.00,VWS V14.01,2013-10-06 17:48:00,
2013-10-06 13:50:00,81.5,63.8,29.82,WSW,252,2.0,4.0,55,0.00,,---,0.00,923.00,VWS V14.01,2013-10-06 17:50:00,
2013-10-06 13:53:00,81.3,63.1,29.82,SW,221,3.0,4.0,54,0.00,,---,0.00,893.00,VWS V14.01,2013-10-06 17:53:00,
2013-10-06 13:58:00,81.6,64.4,29.82,West,259,2.0,4.0,56,0.00,,---,0.00,923.00,VWS V14.01,2013-10-06 17:58:00,
2013-10-06 14:00:00,82.6,62.7,29.81,WSW,258,0.0,9.0,51,0.00,,---,0.00,206.00,VWS V14.01,2013-10-06 18:00:00,
2013-10-06 14:03:00,82.4,64.1,29.81,SW,236,7.0,7.0,54,0.00,,---,0.00,867.00,VWS V14.01,2013-10-06 18:03:00,
2013-10-06 14:08:00,82.5,63.1,29.82,WSW,241,0.0,5.0,52,0.00,,---,0.00,239.00,VWS V14.01,2013-10-06 18:08:00,
2013-10-06 14:10:00,81.7,63.5,29.81,WNW,285,0.0,5.0,54,0.00,,---,0.00,202.00,VWS V14.01,2013-10-06 18:10:00,
2013-10-06 14:13:00,82.0,63.2,29.81,WNW,286,0.0,5.0,53,0.00,,---,0.00,207.00,VWS V14.01,2013-10-06 18:13:00,
2013-10-06 14:19:00,81.6,62.8,29.81,South,191,2.0,4.0,53,0.00,,---,0.00,211.00,VWS V14.01,2013-10-06 18:19:00,
2013-10-06 14:20:00,81.2,63.0,29.80,WNW,287,1.0,7.0,54,0.00,,---,0.00,898.00,VWS V14.01,2013-10-06 18:20:00,
2013-10-06 14:24:00,81.1,62.9,29.81,WNW,298,5.0,6.0,54,0.00,,---,0.00,875.00,VWS V14.01,2013-10-06 18:24:00,
2013-10-06 14:29:00,81.2,62.5,29.80,North,355,1.0,5.0,53,0.00,,---,0.00,898.00,VWS V14.01,2013-10-06 18:29:00,
2013-10-06 14:30:00,81.6,62.8,29.80,NW,310,1.0,6.0,53,0.00,,---,0.00,236.00,VWS V14.01,2013-10-06 18:30:00,
2013-10-06 14:34:00,81.7,63.5,29.80,West,259,1.0,5.0,54,0.00,,---,0.00,158.00,VWS V14.01,2013-10-06 18:34:00,
2013-10-06 14:39:00,81.5,62.7,29.80,NW,311,0.0,1.0,53,0.00,,---,0.00,236.00,VWS V14.01,2013-10-06 18:39:00,
2013-10-06 14:40:00,82.1,63.8,29.79,West,273,2.0,5.0,54,0.00,,---,0.00,715.00,VWS V14.01,2013-10-06 18:40:00,
2013-10-06 14:44:00,81.6,63.9,29.80,NW,315,0.0,5.0,55,0.00,,---,0.00,798.00,VWS V14.01,2013-10-06 18:44:00,
2013-10-06 14:49:00,82.4,63.6,29.79,WNW,285,2.0,3.0,53,0.00,,---,0.00,842.00,VWS V14.01,2013-10-06 18:49:00,
2013-10-06 14:50:00,82.7,63.3,29.79,WSW,240,0.0,6.0,52,0.00,,---,0.00,218.00,VWS V14.01,2013-10-06 18:50:00,
2013-10-06 14:54:00,82.8,63.9,29.79,WNW,286,4.0,4.0,53,0.00,,---,0.00,186.00,VWS V14.01,2013-10-06 18:54:00,
2013-10-06 14:59:00,82.6,63.8,29.79,West,259,0.0,2.0,53,0.00,,---,0.00,218.00,VWS V14.01,2013-10-06 18:59:00,
2013-10-06 15:00:00,81.8,63.0,29.79,NW,323,1.0,7.0,53,0.00,,---,0.00,239.00,VWS V14.01,2013-10-06 19:00:00,
2013-10-06 15:04:00,82.2,62.8,29.79,WNW,288,4.0,6.0,52,0.00,,---,0.00,236.00,VWS V14.01,2013-10-06 19:04:00,
2013-10-06 15:10:00,81.5,63.8,29.79,WNW,295,3.0,5.0,55,0.00,,---,0.00,309.00,VWS V14.01,2013-10-06 19:10:00,
2013-10-06 15:15:00,81.6,63.9,29.79,NW,308,0.0,5.0,55,0.00,,---,0.00,269.00,VWS V14.01,2013-10-06 19:15:00,
2013-10-06 15:20:00,81.8,63.0,29.79,WNW,288,1.0,4.0,53,0.00,,---,0.00,144.00,VWS V14.01,2013-10-06 19:20:00,
2013-10-06 15:25:00,81.2,63.0,29.79,WNW,287,0.0,4.0,54,0.00,,---,0.00,123.00,VWS V14.01,2013-10-06 19:25:00,
2013-10-06 15:30:00,80.6,62.4,29.78,NW,306,2.0,3.0,54,0.00,,---,0.00,717.00,VWS V14.01,2013-10-06 19:30:00,
2013-10-06 15:35:00,80.7,63.0,29.78,West,277,0.0,3.0,55,0.00,,---,0.00,107.00,VWS V14.01,2013-10-06 19:35:00,
2013-10-06 15:40:00,80.7,63.6,29.78,SW,226,4.0,6.0,56,0.00,,---,0.00,163.00,VWS V14.01,2013-10-06 19:40:00,
2013-10-06 15:45:00,80.3,63.2,29.78,WNW,301,1.0,6.0,56,0.00,,---,0.00,171.00,VWS V14.01,2013-10-06 19:45:00,
2013-10-06 15:50:00,80.1,64.0,29.78,SSW,207,0.0,1.0,58,0.00,,---,0.00,211.00,VWS V14.01,2013-10-06 19:50:00,
2013-10-06 15:56:00,80.0,62.9,29.77,WSW,242,0.0,3.0,56,0.00,,---,0.00,211.00,VWS V14.01,2013-10-06 19:56:00,
2013-10-06 16:00:00,81.5,63.8,29.77,NNE,13,0.0,4.0,55,0.00,,---,0.00,652.00,VWS V14.01,2013-10-06 20:00:00,
2013-10-06 16:01:00,80.2,63.6,29.77,WSW,244,1.0,2.0,57,0.00,,---,0.00,747.00,VWS V14.01,2013-10-06 20:01:00,
2013-10-06 16:06:00,81.1,64.4,29.77,NW,304,0.0,4.0,57,0.00,,---,0.00,668.00,VWS V14.01,2013-10-06 20:06:00,
2013-10-06 16:10:00,82.8,62.8,29.77,West,275,5.0,9.0,51,0.00,,---,0.00,633.00,VWS V14.01,2013-10-06 20:10:00,
2013-10-06 16:11:00,82.2,63.9,29.77,WNW,301,1.0,4.0,54,0.00,,---,0.00,647.00,VWS V14.01,2013-10-06 20:11:00,
2013-10-06 16:16:00,82.8,63.4,29.77,SSW,209,4.0,9.0,52,0.00,,---,0.00,640.00,VWS V14.01,2013-10-06 20:16:00,
2013-10-06 16:20:00,83.1,63.1,29.77,South,176,1.0,7.0,51,0.00,,---,0.00,524.00,VWS V14.01,2013-10-06 20:20:00,
2013-10-06 16:21:00,82.7,62.8,29.77,West,277,0.0,7.0,51,0.00,,---,0.00,571.00,VWS V14.01,2013-10-06 20:21:00,
2013-10-06 16:26:00,83.0,64.7,29.77,WSW,241,0.0,7.0,54,0.00,,---,0.00,550.00,VWS V14.01,2013-10-06 20:26:00,
2013-10-06 16:30:00,83.5,63.5,29.76,WSW,246,2.0,6.0,51,0.00,,---,0.00,459.00,VWS V14.01,2013-10-06 20:30:00,
2013-10-06 16:31:00,83.3,63.3,29.77,WNW,303,1.0,4.0,51,0.00,,---,0.00,519.00,VWS V14.01,2013-10-06 20:31:00,
2013-10-06 16:36:00,83.5,62.9,29.76,NW,315,1.0,6.0,50,0.00,,---,0.00,459.00,VWS V14.01,2013-10-06 20:36:00,
2013-10-06 16:40:00,82.7,62.8,29.76,WSW,237,2.0,5.0,51,0.00,,---,0.00,482.00,VWS V14.01,2013-10-06 20:40:00,
2013-10-06 16:42:00,83.3,62.7,29.76,NW,304,1.0,5.0,50,0.00,,---,0.00,446.00,VWS V14.01,2013-10-06 20:42:00,
2013-10-06 16:47:00,82.8,62.8,29.76,NW,319,0.0,5.0,51,0.00,,---,0.00,469.00,VWS V14.01,2013-10-06 20:47:00,
2013-10-06 16:50:00,82.2,62.8,29.76,SSW,201,0.0,7.0,52,0.00,,---,0.00,404.00,VWS V14.01,2013-10-06 20:50:00,
2013-10-06 16:52:00,82.4,62.5,29.76,WNW,302,2.0,7.0,51,0.00,,---,0.00,84.00,VWS V14.01,2013-10-06 20:52:00,
2013-10-06 16:57:00,82.2,62.8,29.76,WNW,289,3.0,7.0,52,0.00,,---,0.00,388.00,VWS V14.01,2013-10-06 20:57:00,
2013-10-06 17:00:00,82.0,62.1,29.76,West,269,0.0,5.0,51,0.00,,---,0.00,373.00,VWS V14.01,2013-10-06 21:00:00,
2013-10-06 17:02:00,82.3,62.4,29.75,WNW,299,0.0,5.0,51,0.00,,---,0.00,253.00,VWS V14.01,2013-10-06 21:02:00,
2013-10-06 17:07:00,82.0,62.1,29.76,West,280,2.0,5.0,51,0.00,,---,0.00,373.00,VWS V14.01,2013-10-06 21:07:00,
2013-10-06 17:10:00,82.0,62.1,29.76,NW,326,0.0,5.0,51,0.00,,---,0.00,396.00,VWS V14.01,2013-10-06 21:10:00,
2013-10-06 17:12:00,82.0,62.7,29.76,WNW,287,5.0,5.0,52,0.00,,---,0.00,301.00,VWS V14.01,2013-10-06 21:12:00,
2013-10-06 17:17:00,82.0,62.1,29.76,WNW,298,1.0,5.0,51,0.00,,---,0.00,396.00,VWS V14.01,2013-10-06 21:17:00,
2013-10-06 17:20:00,81.8,61.9,29.75,WNW,285,2.0,5.0,51,0.00,,---,0.00,107.00,VWS V14.01,2013-10-06 21:20:00,
2013-10-06 17:22:00,81.9,62.6,29.76,West,273,1.0,5.0,52,0.00,,---,0.00,350.00,VWS V14.01,2013-10-06 21:22:00,
2013-10-06 17:27:00,81.9,62.0,29.75,WNW,285,0.0,5.0,51,0.00,,---,0.00,107.00,VWS V14.01,2013-10-06 21:27:00,
2013-10-06 17:30:00,80.9,62.7,29.75,NW,305,1.0,3.0,54,0.00,,---,0.00,332.00,VWS V14.01,2013-10-06 21:30:00,
2013-10-06 17:33:00,81.4,61.5,29.76,NNW,342,1.0,3.0,51,0.00,,---,0.00,104.00,VWS V14.01,2013-10-06 21:33:00,
2013-10-06 17:38:00,80.9,62.7,29.75,NW,305,1.0,3.0,54,0.00,,---,0.00,332.00,VWS V14.01,2013-10-06 21:38:00,
2013-10-06 17:40:00,80.5,62.3,29.75,NW,310,0.0,5.0,54,0.00,,---,0.00,192.00,VWS V14.01,2013-10-06 21:40:00,
2013-10-06 17:43:00,80.8,62.1,29.75,NW,317,0.0,4.0,53,0.00,,---,0.00,267.00,VWS V14.01,2013-10-06 21:43:00,
2013-10-06 17:48:00,80.5,62.3,29.75,WNW,303,0.0,1.0,54,0.00,,---,0.00,243.00,VWS V14.01,2013-10-06 21:48:00,
2013-10-06 17:50:00,80.0,61.3,29.75,WSW,248,0.0,6.0,53,0.00,,---,0.00,118.00,VWS V14.01,2013-10-06 21:50:00,
2013-10-06 17:53:00,80.5,62.9,29.75,WNW,296,1.0,2.0,55,0.00,,---,0.00,123.00,VWS V14.01,2013-10-06 21:53:00,
2013-10-06 17:58:00,80.0,61.9,29.75,WSW,258,1.0,3.0,54,0.00,,---,0.00,118.00,VWS V14.01,2013-10-06 21:58:00,
2013-10-06 18:00:00,78.6,61.6,29.75,WNW,287,3.0,6.0,56,0.00,,---,0.00,53.00,VWS V14.01,2013-10-06 22:00:00,
2013-10-06 18:03:00,79.2,61.1,29.75,WNW,294,0.0,6.0,54,0.00,,---,0.00,63.00,VWS V14.01,2013-10-06 22:03:00,
2013-10-06 18:08:00,78.5,61.5,29.75,WNW,290,2.0,3.0,56,0.00,,---,0.00,53.00,VWS V14.01,2013-10-06 22:08:00,
2013-10-06 18:10:00,77.3,61.4,29.75,SW,226,1.0,5.0,58,0.00,,---,0.00,35.00,VWS V14.01,2013-10-06 22:10:00,
2013-10-06 18:13:00,77.9,61.5,29.75,WSW,252,0.0,5.0,57,0.00,,---,0.00,42.00,VWS V14.01,2013-10-06 22:13:00,
2013-10-06 18:19:00,77.2,61.3,29.75,SW,228,1.0,2.0,58,0.00,,---,0.00,33.00,VWS V14.01,2013-10-06 22:19:00,
2013-10-06 18:20:00,76.2,60.8,29.75,WNW,301,0.0,4.0,59,0.00,,---,0.00,28.00,VWS V14.01,2013-10-06 22:20:00,
2013-10-06 18:24:00,76.6,60.7,29.75,WNW,285,0.0,2.0,58,0.00,,---,0.00,30.00,VWS V14.01,2013-10-06 22:24:00,
2013-10-06 18:29:00,76.1,61.7,29.75,WNW,299,0.0,0.0,61,0.00,,---,0.00,28.00,VWS V14.01,2013-10-06 22:29:00,
2013-10-06 18:30:00,75.3,61.4,29.75,WSW,254,0.0,1.0,62,0.00,,---,0.00,25.00,VWS V14.01,2013-10-06 22:30:00,
2013-10-06 18:34:00,75.7,61.3,29.75,WNW,298,0.0,1.0,61,0.00,,---,0.00,26.00,VWS V14.01,2013-10-06 22:34:00,
2013-10-06 18:39:00,75.2,61.8,29.75,WSW,254,0.0,0.0,63,0.00,,---,0.00,25.00,VWS V14.01,2013-10-06 22:39:00,
2013-10-06 18:40:00,74.5,62.0,29.75,West,273,1.0,1.0,65,0.00,,---,0.00,16.00,VWS V14.01,2013-10-06 22:40:00,
2013-10-06 18:44:00,74.8,61.8,29.75,WSW,254,0.0,0.0,64,0.00,,---,0.00,19.00,VWS V14.01,2013-10-06 22:44:00,
2013-10-06 18:49:00,74.3,61.3,29.75,SSW,197,0.0,3.0,64,0.00,,---,0.00,14.00,VWS V14.01,2013-10-06 22:49:00,
2013-10-06 18:50:00,73.6,61.5,29.74,SW,224,0.0,3.0,66,0.00,,---,0.00,7.00,VWS V14.01,2013-10-06 22:50:00,
2013-10-06 18:54:00,73.8,61.3,29.74,SW,224,0.0,3.0,65,0.00,,---,0.00,9.00,VWS V14.01,2013-10-06 22:54:00,
2013-10-06 18:59:00,73.4,61.4,29.74,WNW,299,0.0,1.0,66,0.00,,---,0.00,5.00,VWS V14.01,2013-10-06 22:59:00,
2013-10-06 19:00:00,72.8,60.8,29.74,WNW,296,0.0,1.0,66,0.00,,---,0.00,0.00,VWS V14.01,2013-10-06 23:00:00,
2013-10-06 19:05:00,73.0,61.4,29.74,WNW,296,0.0,1.0,67,0.00,,---,0.00,0.00,VWS V14.01,2013-10-06 23:05:00,
2013-10-06 19:10:00,72.6,61.0,29.74,WNW,296,0.0,0.0,67,0.00,,---,0.00,0.00,VWS V14.01,2013-10-06 23:10:00,
2013-10-06 19:15:00,72.3,61.2,29.74,WNW,295,0.0,1.0,68,0.00,,---,0.00,0.00,VWS V14.01,2013-10-06 23:15:00,
2013-10-06 19:20:00,72.0,60.9,29.74,NW,310,3.0,3.0,68,0.00,,---,0.00,0.00,VWS V14.01,2013-10-06 23:20:00,
2013-10-06 19:25:00,72.2,60.2,29.74,WNW,288,0.0,3.0,66,0.00,,---,0.00,0.00,VWS V14.01,2013-10-06 23:25:00,
2013-10-06 19:30:00,72.5,60.5,29.74,SW,229,3.0,7.0,66,0.00,,---,0.00,0.00,VWS V14.01,2013-10-06 23:30:00,
2013-10-06 19:35:00,72.6,60.6,29.75,SW,219,0.0,7.0,66,0.00,,---,0.00,0.00,VWS V14.01,2013-10-06 23:35:00,
2013-10-06 19:40:00,72.5,60.5,29.75,SW,219,0.0,1.0,66,0.00,,---,0.00,0.00,VWS V14.01,2013-10-06 23:40:00,
2013-10-06 19:45:00,72.2,60.2,29.75,SW,216,0.0,3.0,66,0.00,,---,0.00,0.00,VWS V14.01,2013-10-06 23:45:00,
2013-10-06 19:50:00,72.0,60.5,29.75,SW,234,0.0,2.0,67,0.00,,---,0.00,0.00,VWS V14.01,2013-10-06 23:50:00,
2013-10-06 19:51:00,72.1,60.5,29.75,SW,230,0.0,1.0,67,0.00,,---,0.00,0.00,VWS V14.01,2013-10-06 23:51:00,
2013-10-06 19:56:00,72.0,60.0,29.75,SW,234,0.0,2.0,66,0.00,,---,0.00,0.00,VWS V14.01,2013-10-06 23:56:00,
2013-10-06 20:00:00,72.0,60.5,29.75,SW,236,0.0,3.0,67,0.00,,---,0.00,0.00,VWS V14.01,2013-10-07 00:00:00,
2013-10-06 20:01:00,72.1,60.5,29.75,SW,234,0.0,0.0,67,0.00,,---,0.00,0.00,VWS V14.01,2013-10-07 00:01:00,
2013-10-06 20:06:00,72.1,60.5,29.75,SW,236,0.0,3.0,67,0.00,,---,0.00,0.00,VWS V14.01,2013-10-07 00:06:00,
2013-10-06 20:10:00,71.5,60.4,29.75,SW,236,0.0,0.0,68,0.00,,---,0.00,0.00,VWS V14.01,2013-10-07 00:10:00,
2013-10-06 20:11:00,71.9,60.4,29.75,SW,236,0.0,0.0,67,0.00,,---,0.00,0.00,VWS V14.01,2013-10-07 00:11:00,
2013-10-06 20:16:00,71.6,60.5,29.75,SW,236,0.0,0.0,68,0.00,,---,0.00,0.00,VWS V14.01,2013-10-07 00:16:00,
2013-10-06 20:20:00,70.8,60.1,29.74,SW,236,0.0,0.0,69,0.00,,---,0.00,0.00,VWS V14.01,2013-10-07 00:20:00,
2013-10-06 20:21:00,71.3,60.6,29.75,SW,236,0.0,0.0,69,0.00,,---,0.00,0.00,VWS V14.01,2013-10-07 00:21:00,
2013-10-06 20:27:00,70.9,60.2,29.75,SW,236,0.0,0.0,69,0.00,,---,0.00,0.00,VWS V14.01,2013-10-07 00:27:00,
2013-10-06 20:30:00,70.3,60.5,29.75,SW,236,0.0,2.0,71,0.00,,---,0.00,0.00,VWS V14.01,2013-10-07 00:30:00,
2013-10-06 20:32:00,70.5,60.3,29.74,SW,236,0.0,0.0,70,0.00,,---,0.00,0.00,VWS V14.01,2013-10-07 00:32:00,
2013-10-06 20:37:00,70.3,60.5,29.75,SW,236,0.0,2.0,71,0.00,,---,0.00,0.00,VWS V14.01,2013-10-07 00:37:00,
2013-10-06 20:40:00,70.2,60.8,29.75,SW,236,0.0,1.0,72,0.00,,---,0.00,0.00,VWS V14.01,2013-10-07 00:40:00,
2013-10-06 20:42:00,70.2,60.4,29.75,SW,236,0.0,1.0,71,0.00,,---,0.00,0.00,VWS V14.01,2013-10-07 00:42:00,
2013-10-06 20:47:00,70.2,60.8,29.75,SW,236,0.0,1.0,72,0.00,,---,0.00,0.00,VWS V14.01,2013-10-07 00:47:00,
2013-10-06 20:50:00,70.1,60.7,29.75,SW,236,0.0,0.0,72,0.00,,---,0.00,0.00,VWS V14.01,2013-10-07 00:50:00,
2013-10-06 20:52:00,70.1,60.7,29.75,SW,236,0.0,0.0,72,0.00,,---,0.00,0.00,VWS V14.01,2013-10-07 00:52:00,
2013-10-06 20:57:00,70.1,60.7,29.75,SW,236,0.0,0.0,72,0.00,,---,0.00,0.00,VWS V14.01,2013-10-07 00:57:00,
2013-10-06 21:00:00,70.0,61.0,29.76,SW,236,0.0,1.0,73,0.00,,---,0.00,0.00,VWS V14.01,2013-10-07 01:00:00,
2013-10-06 21:02:00,70.0,61.0,29.76,SW,236,0.0,1.0,73,0.00,,---,0.00,0.00,VWS V14.01,2013-10-07 01:02:00,
2013-10-06 21:08:00,70.0,61.0,29.76,SW,236,0.0,1.0,73,0.00,,---,0.00,0.00,VWS V14.01,2013-10-07 01:08:00,
2013-10-06 21:10:00,69.8,61.2,29.76,SW,236,0.0,0.0,74,0.00,,---,0.00,0.00,VWS V14.01,2013-10-07 01:10:00,
2013-10-06 21:13:00,69.9,60.9,29.76,SW,236,0.0,0.0,73,0.00,,---,0.00,0.00,VWS V14.01,2013-10-07 01:13:00,
2013-10-06 21:18:00,69.8,61.2,29.76,SW,236,0.0,0.0,74,0.00,,---,0.00,0.00,VWS V14.01,2013-10-07 01:18:00,
2013-10-06 21:20:00,69.5,60.9,29.76,SW,236,0.0,0.0,74,0.00,,---,0.00,0.00,VWS V14.01,2013-10-07 01:20:00,
2013-10-06 21:23:00,69.6,61.0,29.76,SW,236,0.0,0.0,74,0.00,,---,0.00,0.00,VWS V14.01,2013-10-07 01:23:00,
2013-10-06 21:28:00,69.5,60.9,29.76,SW,236,0.0,0.0,74,0.00,,---,0.00,0.00,VWS V14.01,2013-10-07 01:28:00,
2013-10-06 21:30:00,69.1,60.8,29.75,SW,236,0.0,0.0,75,0.00,,---,0.00,0.00,VWS V14.01,2013-10-07 01:30:00,
2013-10-06 21:33:00,69.3,61.0,29.76,SW,236,0.0,0.0,75,0.00,,---,0.00,0.00,VWS V14.01,2013-10-07 01:33:00,
2013-10-06 21:38:00,69.1,60.8,29.75,SW,236,0.0,0.0,75,0.00,,---,0.00,0.00,VWS V14.01,2013-10-07 01:38:00,
2013-10-06 21:40:00,68.7,60.8,29.76,SW,236,0.0,0.0,76,0.00,,---,0.00,0.00,VWS V14.01,2013-10-07 01:40:00,
2013-10-06 21:43:00,68.9,61.0,29.76,SW,236,0.0,0.0,76,0.00,,---,0.00,0.00,VWS V14.01,2013-10-07 01:43:00,
2013-10-06 21:48:00,68.7,60.8,29.76,SW,236,0.0,0.0,76,0.00,,---,0.00,0.00,VWS V14.01,2013-10-07 01:48:00,
2013-10-06 21:50:00,68.4,60.9,29.76,SW,236,0.0,0.0,77,0.00,,---,0.00,0.00,VWS V14.01,2013-10-07 01:50:00,
2013-10-06 21:53:00,68.5,61.0,29.76,SW,236,0.0,0.0,77,0.00,,---,0.00,0.00,VWS V14.01,2013-10-07 01:53:00,
2013-10-06 21:58:00,68.4,60.9,29.76,SW,236,0.0,0.0,77,0.00,,---,0.00,0.00,VWS V14.01,2013-10-07 01:58:00,
2013-10-06 22:00:00,68.3,61.2,29.76,North,0,0.0,0.0,78,4.21,,---,0.00,0.00,VWS V14.01,2013-10-07 02:00:00,
2013-10-06 22:03:00,68.3,61.2,29.76,SW,236,0.0,0.0,78,0.00,,---,0.00,0.00,VWS V14.01,2013-10-07 02:03:00,
2013-10-06 22:10:00,68.3,61.2,29.76,North,0,0.0,0.0,78,4.21,,---,0.00,0.00,VWS V14.01,2013-10-07 02:10:00,
2013-10-06 22:20:00,68.3,61.2,29.75,SW,225,0.0,1.0,78,4.21,,---,0.00,0.00,VWS V14.01,2013-10-07 02:20:00,
2013-10-06 22:30:00,68.3,61.2,29.75,SW,225,0.0,0.0,78,4.21,,---,0.00,0.00,VWS V14.01,2013-10-07 02:30:00,
2013-10-06 22:40:00,68.6,61.5,29.74,SW,225,0.0,2.0,78,4.21,,---,0.00,0.00,VWS V14.01,2013-10-07 02:40:00,
2013-10-06 22:50:00,69.2,61.7,29.75,SW,225,0.0,2.0,77,4.21,,---,0.00,0.00,VWS V14.01,2013-10-07 02:50:00,
2013-10-06 23:00:00,70.1,61.8,29.74,WSW,248,1.0,4.0,75,4.21,,---,0.00,0.00,VWS V14.01,2013-10-07 03:00:00,
2013-10-06 23:10:00,70.6,62.3,29.74,WNW,292,0.0,2.0,75,0.00,,---,0.00,0.00,VWS V14.01,2013-10-07 03:10:00,
2013-10-06 23:20:00,70.6,62.3,29.75,SW,225,0.0,3.0,75,0.00,,---,0.00,0.00,VWS V14.01,2013-10-07 03:20:00,
2013-10-06 23:30:00,70.4,62.5,29.75,SW,225,0.0,1.0,76,0.00,,---,0.00,0.00,VWS V14.01,2013-10-07 03:30:00,
2013-10-06 23:40:00,70.2,62.7,29.75,SW,225,0.0,1.0,77,0.00,,---,0.00,0.00,VWS V14.01,2013-10-07 03:40:00,
2013-10-06 23:50:00,69.8,63.0,29.75,SW,225,0.0,0.0,79,0.00,,---,0.00,0.00,VWS V14.01,2013-10-07 03:50:00,